createdAt,value
2018-11-12T00:00:15.614Z,7.33
2018-11-12T00:02:45.045Z,7.90
2018-11-12T00:05:13.968Z,6.83
2018-11-12T00:07:42.352Z,6.73
2018-11-12T00:10:10.729Z,7.77
2018-11-12T00:12:39.239Z,6.30
2018-11-12T00:15:08.508Z,6.27
2018-11-12T00:17:36.826Z,5.50
2018-11-12T00:20:05.524Z,6.93
2018-11-12T00:22:33.755Z,6.27
2018-11-12T00:25:02.126Z,5.90
2018-11-12T00:27:30.399Z,4.83
2018-11-12T00:29:58.637Z,5.80
2018-11-12T00:32:26.890Z,4.73
2018-11-12T00:34:55.193Z,5.57
2018-11-12T00:37:23.425Z,5.03
2018-11-12T00:39:51.669Z,5.80
2018-11-12T00:42:19.905Z,5.50
2018-11-12T00:44:48.192Z,5.80
2018-11-12T00:47:16.439Z,5.23
2018-11-12T00:49:45.029Z,5.80
2018-11-12T00:52:13.280Z,4.27
2018-11-12T00:54:41.632Z,5.27
2018-11-12T00:57:10.016Z,5.47
2018-11-12T00:59:38.236Z,4.80
2018-11-12T01:02:06.498Z,4.53
2018-11-12T01:04:34.832Z,4.70
2018-11-12T01:07:03.071Z,4.80
2018-11-12T01:09:31.420Z,4.60
2018-11-12T01:11:59.668Z,4.00
2018-11-12T01:14:27.920Z,3.73
2018-11-12T01:16:56.164Z,3.97
2018-11-12T01:19:24.405Z,3.30
2018-11-12T01:21:52.708Z,3.03
2018-11-12T01:24:20.964Z,2.90
2018-11-12T01:26:49.225Z,3.80
2018-11-12T01:29:17.551Z,3.63
2018-11-12T01:31:45.856Z,3.30
2018-11-12T01:34:14.091Z,3.93
2018-11-12T01:36:42.443Z,3.07
2018-11-12T01:39:12.008Z,3.37
2018-11-12T01:41:40.697Z,3.57
2018-11-12T01:44:09.198Z,4.03
2018-11-12T01:46:37.453Z,3.17
2018-11-12T01:49:06.061Z,3.80
2018-11-12T01:51:34.392Z,3.47
2018-11-12T01:54:02.760Z,4.40
2018-11-12T01:56:30.996Z,3.73
2018-11-12T01:58:59.581Z,3.40
2018-11-12T02:01:27.871Z,3.13
2018-11-12T02:03:56.125Z,3.30
2018-11-12T02:06:24.363Z,2.70
2018-11-12T02:08:52.669Z,3.10
2018-11-12T02:11:20.904Z,3.13
2018-11-12T02:13:49.181Z,3.47
2018-11-12T02:16:17.426Z,3.63
2018-11-12T02:18:45.677Z,3.33
2018-11-12T02:21:13.917Z,3.70
2018-11-12T02:23:42.294Z,3.70
2018-11-12T02:26:10.559Z,3.97
2018-11-12T02:28:38.797Z,2.70
2018-11-12T02:31:07.086Z,3.23
2018-11-12T02:33:35.348Z,3.47
2018-11-12T02:36:03.625Z,3.50
2018-11-12T02:38:31.875Z,4.20
2018-11-12T02:41:00.132Z,4.27
2018-11-12T02:43:28.380Z,3.27
2018-11-12T02:45:56.668Z,3.30
2018-11-12T02:48:24.938Z,4.10
2018-11-12T02:50:53.172Z,2.97
2018-11-12T02:53:21.436Z,3.17
2018-11-12T02:55:49.686Z,3.10
2018-11-12T02:58:17.992Z,2.60
2018-11-12T03:00:46.272Z,3.50
2018-11-12T03:03:14.502Z,2.37
2018-11-12T03:05:42.812Z,3.40
2018-11-12T03:08:11.069Z,3.27
2018-11-12T03:10:39.335Z,2.83
2018-11-12T03:13:07.575Z,3.50
2018-11-12T03:15:35.934Z,3.33
2018-11-12T03:18:04.330Z,3.87
2018-11-12T03:20:32.612Z,3.50
2018-11-12T03:23:00.940Z,3.33
2018-11-12T03:28:19.731Z,3.33
2018-11-12T03:30:47.990Z,3.57
2018-11-12T03:33:16.277Z,3.40
2018-11-12T03:35:44.540Z,2.90
2018-11-12T03:38:12.891Z,3.30
2018-11-12T03:40:41.100Z,3.87
2018-11-12T03:43:09.344Z,3.50
2018-11-12T03:45:37.775Z,2.70
2018-11-12T03:48:06.026Z,3.10
2018-11-12T03:50:34.296Z,3.67
2018-11-12T03:53:02.545Z,3.80
2018-11-12T03:55:31.713Z,3.17
2018-11-12T03:58:00.014Z,2.80
2018-11-12T04:00:30.899Z,2.57
2018-11-12T04:02:59.118Z,3.10
2018-11-12T04:05:27.525Z,3.30
2018-11-12T04:07:55.951Z,2.00
2018-11-12T04:10:24.203Z,3.67
2018-11-12T04:12:52.496Z,3.50
2018-11-12T04:15:22.085Z,4.10
2018-11-12T04:17:50.333Z,2.93
2018-11-12T04:20:19.850Z,2.97
2018-11-12T04:22:53.369Z,2.67
2018-11-12T04:25:21.626Z,3.53
2018-11-12T04:27:49.885Z,2.67
2018-11-12T04:30:18.120Z,3.00
2018-11-12T04:32:46.976Z,2.97
2018-11-12T04:35:15.198Z,3.23
2018-11-12T04:37:43.478Z,3.13
2018-11-12T04:40:14.046Z,3.33
2018-11-12T04:42:42.611Z,3.27
2018-11-12T04:45:13.150Z,3.20
2018-11-12T04:47:41.769Z,3.23
2018-11-12T04:50:12.067Z,3.53
2018-11-12T04:52:40.673Z,3.20
2018-11-12T04:55:10.103Z,3.77
2018-11-12T04:57:39.274Z,3.83
2018-11-12T05:00:11.083Z,3.47
2018-11-12T05:02:40.128Z,3.20
2018-11-12T05:05:09.378Z,3.97
2018-11-12T05:07:37.724Z,3.50
2018-11-12T05:10:07.727Z,3.93
2018-11-12T05:12:36.104Z,3.80
2018-11-12T05:15:04.772Z,3.70
2018-11-12T05:17:33.105Z,3.73
2018-11-12T05:20:01.380Z,4.07
2018-11-12T05:22:29.714Z,4.63
2018-11-12T05:24:58.293Z,5.03
2018-11-12T05:27:26.635Z,4.30
2018-11-12T05:29:54.948Z,3.77
2018-11-12T05:32:23.227Z,3.97
2018-11-12T05:34:51.582Z,4.40
2018-11-12T05:37:19.844Z,4.10
2018-11-12T05:39:48.127Z,3.90
2018-11-12T05:42:16.412Z,3.77
2018-11-12T05:44:44.819Z,3.70
2018-11-12T05:47:13.104Z,3.67
2018-11-12T05:49:41.425Z,4.17
2018-11-12T05:52:09.709Z,4.10
2018-11-12T05:54:37.997Z,4.43
2018-11-12T05:57:06.292Z,4.10
2018-11-12T05:59:34.654Z,4.13
2018-11-12T06:02:02.997Z,3.10
2018-11-12T06:04:31.248Z,4.10
2018-11-12T06:06:59.564Z,4.03
2018-11-12T06:09:27.951Z,3.40
2018-11-12T06:11:56.219Z,4.20
2018-11-12T06:14:24.581Z,4.10
2018-11-12T06:16:52.867Z,3.20
2018-11-12T06:19:21.343Z,3.80
2018-11-12T06:21:49.592Z,3.50
2018-11-12T06:24:17.885Z,3.97
2018-11-12T06:26:46.189Z,3.37
2018-11-12T06:29:14.465Z,3.93
2018-11-12T06:31:43.050Z,3.70
2018-11-12T06:34:11.364Z,3.73
2018-11-12T06:36:39.711Z,4.07
2018-11-12T06:39:08.615Z,4.53
2018-11-12T06:41:37.035Z,4.20
2018-11-12T06:44:06.056Z,4.17
2018-11-12T06:46:35.546Z,4.20
2018-11-12T06:49:03.896Z,4.47
2018-11-12T06:51:32.225Z,4.63
2018-11-12T06:54:00.528Z,4.53
2018-11-12T06:56:28.836Z,4.67
2018-11-12T06:58:57.100Z,5.80
2018-11-12T07:01:25.416Z,4.63
2018-11-12T07:03:53.716Z,4.97
2018-11-12T07:06:22.049Z,5.30
2018-11-12T07:08:50.312Z,4.73
2018-11-12T07:11:18.634Z,4.67
2018-11-12T07:13:46.983Z,5.20
2018-11-12T07:16:15.375Z,4.83
2018-11-12T07:18:43.714Z,4.30
2018-11-12T07:21:12.017Z,5.97
2018-11-12T07:23:40.369Z,5.57
2018-11-12T07:26:08.722Z,6.07
2018-11-12T07:28:37.017Z,6.07
2018-11-12T07:31:05.523Z,5.07
2018-11-12T07:33:33.767Z,5.70
2018-11-12T07:36:02.116Z,4.97
2018-11-12T07:38:30.928Z,5.80
2018-11-12T07:40:59.312Z,5.07
2018-11-12T07:43:28.379Z,5.20
2018-11-12T07:45:56.719Z,5.57
2018-11-12T07:48:25.068Z,6.03
2018-11-12T07:50:53.399Z,6.47
2018-11-12T07:53:21.675Z,6.43
2018-11-12T07:55:49.939Z,5.73
2018-11-12T07:58:18.213Z,6.83
2018-11-12T08:00:46.525Z,4.57
2018-11-12T08:03:14.908Z,5.83
2018-11-12T08:05:43.227Z,5.93
2018-11-12T08:08:11.590Z,6.10
2018-11-12T08:10:39.996Z,7.27
2018-11-12T08:13:08.277Z,6.33
2018-11-12T08:15:36.651Z,6.50
2018-11-12T08:18:05.052Z,5.50
2018-11-12T08:20:33.369Z,5.60
2018-11-12T08:23:01.616Z,6.80
2018-11-12T08:25:29.923Z,6.33
2018-11-12T08:27:58.261Z,6.50
2018-11-12T08:30:27.771Z,6.67
2018-11-12T08:32:57.349Z,7.17
2018-11-12T08:35:25.883Z,6.27
2018-11-12T08:37:54.602Z,6.27
2018-11-12T08:40:24.343Z,6.70
2018-11-12T08:42:52.642Z,7.00
2018-11-12T08:45:20.935Z,7.03
2018-11-12T08:47:50.577Z,7.10
2018-11-12T08:50:20.429Z,6.70
2018-11-12T08:52:49.658Z,7.20
2018-11-12T08:55:19.354Z,7.70
2018-11-12T08:57:49.071Z,6.53
2018-11-12T09:00:18.044Z,8.33
2018-11-12T09:02:46.434Z,7.60
2018-11-12T09:05:15.980Z,6.30
2018-11-12T09:07:45.884Z,6.70
2018-11-12T09:10:16.874Z,6.53
2018-11-12T09:12:45.496Z,7.03
2018-11-12T09:15:14.056Z,7.30
2018-11-12T09:17:43.172Z,7.40
2018-11-12T09:20:13.948Z,7.40
2018-11-12T09:22:42.309Z,7.63
2018-11-12T09:25:13.041Z,6.57
2018-11-12T09:27:41.396Z,7.67
2018-11-12T09:30:13.381Z,7.30
2018-11-12T09:32:42.452Z,8.03
2018-11-12T09:35:12.716Z,7.67
2018-11-12T09:37:41.598Z,7.43
2018-11-12T09:40:45.764Z,6.47
2018-11-12T09:43:14.065Z,7.27
2018-11-12T09:45:43.103Z,7.40
2018-11-12T09:48:11.507Z,6.80
2018-11-12T09:50:39.821Z,6.80
2018-11-12T09:53:08.091Z,7.80
2018-11-12T09:55:36.378Z,7.70
2018-11-12T09:58:06.840Z,7.47
2018-11-12T10:00:35.461Z,6.83
2018-11-12T10:03:04.447Z,6.47
2018-11-12T10:05:33.732Z,6.30
2018-11-12T10:08:09.153Z,6.13
2018-11-12T10:10:41.622Z,6.73
2018-11-12T10:13:12.152Z,7.80
2018-11-12T10:15:41.214Z,6.60
2018-11-12T10:18:09.208Z,7.60
2018-11-12T10:20:34.555Z,6.50
2018-11-12T10:23:03.143Z,7.73
2018-11-12T10:25:31.665Z,7.77
2018-11-12T10:27:59.989Z,6.17
2018-11-12T10:30:28.275Z,6.97
2018-11-12T10:32:57.163Z,7.00
2018-11-12T10:35:25.473Z,7.07
2018-11-12T10:37:53.739Z,7.20
2018-11-12T10:40:23.225Z,6.53
2018-11-12T10:42:51.626Z,7.00
2018-11-12T10:45:20.157Z,7.20
2018-11-12T10:47:49.531Z,7.47
2018-11-12T10:50:17.928Z,7.00
2018-11-12T10:52:46.221Z,6.77
2018-11-12T10:55:16.095Z,7.53
2018-11-12T10:57:44.753Z,7.23
2018-11-12T11:01:23.260Z,7.40
2018-11-12T11:03:53.439Z,7.40
2018-11-12T11:06:22.600Z,6.57
2018-11-12T11:08:50.896Z,6.57
2018-11-12T11:11:19.178Z,6.80
2018-11-12T11:13:47.514Z,6.87
2018-11-12T11:16:16.657Z,6.73
2018-11-12T11:18:44.970Z,7.10
2018-11-12T11:21:13.295Z,7.10
2018-11-12T11:23:41.548Z,6.50
2018-11-12T11:26:09.823Z,7.00
2018-11-12T11:28:38.124Z,5.93
2018-11-12T11:31:06.429Z,6.50
2018-11-12T11:33:34.798Z,6.10
2018-11-12T11:36:03.088Z,6.60
2018-11-12T11:38:31.362Z,6.20
2018-11-12T11:40:59.618Z,4.93
2018-11-12T11:43:27.965Z,5.73
2018-11-12T11:45:56.276Z,5.10
2018-11-12T11:48:24.596Z,6.60
2018-11-12T11:50:52.908Z,5.90
2018-11-12T11:53:21.269Z,6.10
2018-11-12T11:55:49.615Z,6.50
2018-11-12T11:58:17.924Z,5.73
2018-11-12T12:00:46.224Z,5.70
2018-11-12T12:03:14.543Z,6.70
2018-11-12T12:05:42.980Z,5.33
2018-11-12T12:08:11.265Z,4.10
2018-11-12T12:10:39.610Z,5.77
2018-11-12T12:13:07.961Z,6.33
2018-11-12T12:15:36.187Z,6.20
2018-11-12T12:18:04.469Z,5.10
2018-11-12T12:20:32.793Z,4.70
2018-11-12T12:23:01.080Z,5.10
2018-11-12T12:25:29.445Z,7.17
2018-11-12T12:27:57.737Z,5.67
2018-11-12T12:30:27.066Z,6.53
2018-11-12T12:32:56.201Z,5.73
2018-11-12T12:35:24.531Z,5.30
2018-11-12T12:37:53.164Z,7.53
2018-11-12T12:40:22.573Z,6.70
2018-11-12T12:42:50.910Z,7.33
2018-11-12T12:45:20.592Z,6.90
2018-11-12T12:47:49.262Z,6.47
2018-11-12T12:50:18.328Z,7.17
2018-11-12T12:52:46.621Z,6.17
2018-11-12T12:55:15.762Z,5.10
2018-11-12T12:57:44.703Z,4.67
2018-11-12T13:00:19.553Z,4.53
2018-11-12T13:02:47.827Z,4.33
2018-11-12T13:05:16.148Z,5.60
2018-11-12T13:07:44.444Z,5.23
2018-11-12T13:10:15.266Z,5.93
2018-11-12T13:12:43.567Z,5.90
2018-11-12T13:15:13.140Z,5.90
2018-11-12T13:17:41.856Z,5.70
2018-11-12T13:20:11.586Z,5.93
2018-11-12T13:22:40.014Z,6.73
2018-11-12T13:25:08.657Z,6.87
2018-11-12T13:27:37.224Z,7.97
2018-11-12T13:30:08.176Z,7.50
2018-11-12T13:32:36.736Z,7.93
2018-11-12T13:35:05.569Z,8.67
2018-11-12T13:37:33.913Z,7.80
2018-11-12T13:40:02.268Z,7.40
2018-11-12T13:42:30.564Z,8.50
2018-11-12T13:44:58.872Z,7.50
2018-11-12T13:47:27.242Z,6.97
2018-11-12T13:49:55.568Z,7.07
2018-11-12T13:52:23.838Z,6.03
2018-11-12T13:54:52.123Z,5.73
2018-11-12T13:57:20.450Z,5.97
2018-11-12T13:59:48.752Z,6.30
2018-11-12T14:02:17.041Z,7.83
2018-11-12T14:04:45.324Z,6.30
2018-11-12T14:07:13.596Z,7.43
2018-11-12T14:09:41.965Z,7.37
2018-11-12T14:12:10.257Z,7.70
2018-11-12T14:14:38.585Z,7.77
2018-11-12T14:17:07.121Z,7.57
2018-11-12T14:19:35.448Z,9.57
2018-11-12T14:22:03.753Z,8.67
2018-11-12T14:24:32.077Z,7.63
2018-11-12T14:27:00.373Z,8.07
2018-11-12T14:29:28.640Z,7.30
2018-11-12T14:31:57.824Z,8.30
2018-11-12T14:34:26.152Z,8.93
2018-11-12T14:36:55.443Z,9.00
2018-11-12T14:39:23.960Z,9.30
2018-11-12T14:41:52.168Z,12.27
2018-11-12T14:44:20.464Z,8.20
2018-11-12T14:46:49.276Z,8.20
2018-11-12T14:49:17.650Z,8.33
2018-11-12T14:51:45.921Z,9.57
2018-11-12T14:54:14.295Z,9.30
2018-11-12T14:56:43.002Z,10.23
2018-11-12T14:59:12.148Z,10.50
2018-11-12T15:01:41.382Z,10.40
2018-11-12T15:04:10.785Z,9.40
2018-11-12T15:06:39.506Z,10.80
2018-11-12T15:09:10.655Z,11.63
2018-11-12T15:11:39.196Z,9.03
2018-11-12T15:14:09.362Z,11.87
2018-11-12T15:16:38.409Z,10.10
2018-11-12T15:19:07.164Z,9.83
2018-11-12T15:21:36.816Z,9.80
2018-11-12T15:24:05.939Z,10.37
2018-11-12T15:26:34.452Z,9.97
2018-11-12T15:29:02.892Z,7.93
2018-11-12T15:31:31.593Z,10.60
2018-11-12T15:34:00.814Z,9.50
2018-11-12T15:36:31.298Z,9.70
2018-11-12T15:39:00.122Z,9.40
2018-11-12T15:41:28.819Z,10.93
2018-11-12T15:43:57.461Z,8.00
2018-11-12T15:46:26.465Z,8.00
2018-11-12T15:48:55.248Z,8.13
2018-11-12T15:51:24.665Z,9.60
2018-11-12T15:53:53.499Z,8.60
2018-11-12T15:56:22.232Z,9.30
2018-11-12T15:58:50.561Z,9.93
2018-11-12T16:01:19.218Z,10.83
2018-11-12T16:03:47.654Z,11.63
2018-11-12T16:06:15.994Z,11.40
2018-11-12T16:08:44.253Z,11.03
2018-11-12T16:11:12.658Z,11.10
2018-11-12T16:13:40.988Z,10.30
2018-11-12T16:16:09.294Z,12.10
2018-11-12T16:18:37.631Z,12.87
2018-11-12T16:21:05.980Z,11.20
2018-11-12T16:23:34.275Z,11.67
2018-11-12T16:26:02.523Z,14.27
2018-11-12T16:28:30.861Z,11.70
2018-11-12T16:30:59.345Z,13.80
2018-11-12T16:33:27.629Z,12.13
2018-11-12T16:35:55.944Z,13.20
2018-11-12T16:38:24.273Z,11.10
2018-11-12T16:40:52.614Z,11.50
2018-11-12T16:43:20.890Z,12.10
2018-11-12T16:45:49.221Z,12.67
2018-11-12T16:48:17.543Z,14.40
2018-11-12T16:50:45.819Z,13.70
2018-11-12T16:53:14.142Z,11.70
2018-11-12T16:55:42.507Z,10.10
2018-11-12T16:58:10.794Z,9.97
2018-11-12T17:00:39.124Z,9.77
2018-11-12T17:03:07.543Z,12.03
2018-11-12T17:05:35.834Z,10.37
2018-11-12T17:08:04.276Z,11.50
2018-11-12T17:10:32.609Z,10.10
2018-11-12T17:13:00.946Z,11.70
2018-11-12T17:15:30.260Z,11.03
2018-11-12T17:17:58.653Z,12.60
2018-11-12T17:20:26.957Z,10.97
2018-11-12T17:22:56.504Z,11.27
2018-11-12T17:25:26.467Z,10.77
2018-11-12T17:27:54.776Z,12.83
2018-11-12T17:30:23.092Z,12.03
2018-11-12T17:32:51.681Z,9.77
2018-11-12T17:35:21.115Z,11.10
2018-11-12T17:37:49.593Z,11.70
2018-11-12T17:40:22.275Z,12.03
2018-11-12T17:42:51.432Z,10.40
2018-11-12T17:45:21.184Z,10.87
2018-11-12T17:47:50.859Z,11.10
2018-11-12T17:50:19.213Z,10.60
2018-11-12T17:52:47.610Z,11.90
2018-11-12T17:55:16.032Z,10.37
2018-11-12T17:57:44.343Z,11.53
2018-11-12T18:00:16.353Z,12.27
2018-11-12T18:02:44.804Z,13.13
2018-11-12T18:05:13.123Z,13.30
2018-11-12T18:07:42.162Z,12.87
2018-11-12T18:10:11.556Z,13.87
2018-11-12T18:12:40.001Z,13.67
2018-11-12T18:15:11.401Z,16.00
2018-11-12T18:17:39.724Z,15.47
2018-11-12T18:20:10.383Z,14.70
2018-11-12T18:22:38.818Z,16.53
2018-11-12T18:25:07.281Z,15.47
2018-11-12T18:27:36.240Z,15.03
2018-11-12T18:30:07.211Z,18.23
2018-11-12T18:32:35.480Z,16.83
2018-11-12T18:35:04.886Z,20.50
2018-11-12T18:37:33.452Z,19.13
2018-11-12T18:40:02.313Z,18.63
2018-11-12T18:42:31.226Z,19.10
2018-11-12T18:45:01.035Z,18.93
2018-11-12T18:47:30.085Z,20.13
2018-11-12T18:49:58.641Z,19.97
2018-11-12T18:52:27.360Z,22.40
2018-11-12T18:54:55.758Z,20.73
2018-11-12T18:57:24.174Z,20.20
2018-11-12T18:59:52.396Z,23.93
2018-11-12T19:02:21.176Z,23.70
2018-11-12T19:04:49.919Z,23.80
2018-11-12T19:07:18.712Z,25.13
2018-11-12T19:09:47.561Z,25.10
2018-11-12T19:12:16.606Z,27.13
2018-11-12T19:14:44.982Z,26.40
2018-11-12T19:17:13.317Z,26.33
2018-11-12T19:19:41.680Z,28.07
2018-11-12T19:22:10.023Z,28.10
2018-11-12T19:24:38.732Z,26.70
2018-11-12T19:27:07.150Z,27.60
2018-11-12T19:29:35.480Z,27.10
2018-11-12T19:32:03.873Z,26.73
2018-11-12T19:34:33.556Z,27.30
2018-11-12T19:37:03.245Z,27.10
2018-11-12T19:39:32.068Z,27.00
2018-11-12T19:42:01.004Z,27.17
2018-11-12T19:44:30.488Z,26.63
2018-11-12T19:46:59.274Z,25.30
2018-11-12T19:49:27.744Z,25.27
2018-11-12T19:51:57.903Z,24.73
2018-11-12T19:54:27.146Z,25.80
2018-11-12T19:56:55.845Z,26.37
2018-11-12T19:59:24.140Z,28.87
2018-11-12T20:01:52.761Z,27.10
2018-11-12T20:04:22.288Z,26.67
2018-11-12T20:06:50.612Z,25.80
2018-11-12T20:09:19.472Z,26.60
2018-11-12T20:11:48.300Z,25.47
2018-11-12T20:14:16.704Z,24.60
2018-11-12T20:16:46.657Z,26.53
2018-11-12T20:19:14.966Z,26.73
2018-11-12T20:21:44.029Z,24.87
2018-11-12T20:24:13.580Z,23.77
2018-11-12T20:26:42.703Z,22.87
2018-11-12T20:29:11.436Z,23.80
2018-11-12T20:31:39.740Z,21.23
2018-11-12T20:34:08.309Z,22.00
2018-11-12T20:36:36.594Z,21.97
2018-11-12T20:39:08.202Z,23.13
2018-11-12T20:41:36.557Z,22.90
2018-11-12T20:44:05.308Z,21.47
2018-11-12T20:46:33.576Z,24.03
2018-11-12T20:49:01.873Z,21.57
2018-11-12T20:51:30.146Z,24.03
2018-11-12T20:53:58.583Z,24.50
2018-11-12T20:56:26.859Z,21.57
2018-11-12T20:58:55.312Z,23.50
2018-11-12T21:01:23.595Z,23.80
2018-11-12T21:03:51.979Z,24.67
2018-11-12T21:06:20.284Z,23.37
2018-11-12T21:08:48.613Z,25.00
2018-11-12T21:11:16.981Z,25.80
2018-11-12T21:13:45.482Z,23.57
2018-11-12T21:16:13.788Z,27.97
2018-11-12T21:18:42.105Z,27.43
2018-11-12T21:21:10.448Z,26.30
2018-11-12T21:23:38.739Z,25.60
2018-11-12T21:26:07.041Z,26.40
2018-11-12T21:28:35.383Z,26.80
2018-11-12T21:31:03.651Z,29.47
2018-11-12T21:33:31.938Z,26.20
2018-11-12T21:36:00.290Z,26.30
2018-11-12T21:38:28.597Z,25.50
2018-11-12T21:40:56.855Z,27.27
2018-11-12T21:43:25.295Z,26.73
2018-11-12T21:45:53.432Z,25.83
2018-11-12T21:48:21.768Z,25.40
2018-11-12T21:50:50.028Z,27.30
2018-11-12T21:53:18.361Z,27.40
2018-11-12T21:55:46.684Z,26.73
2018-11-12T21:58:14.984Z,27.33
2018-11-12T22:00:43.248Z,26.80
2018-11-12T22:03:11.524Z,23.70
2018-11-12T22:05:39.851Z,24.40
2018-11-12T22:08:08.143Z,24.40
2018-11-12T22:10:36.433Z,22.07
2018-11-12T22:13:04.805Z,24.17
2018-11-12T22:15:33.208Z,24.20
2018-11-12T22:18:01.584Z,22.60
2018-11-12T22:20:29.848Z,23.47
2018-11-12T22:22:58.142Z,22.40
2018-11-12T22:25:26.549Z,24.73
2018-11-12T22:27:54.910Z,23.60
2018-11-12T22:30:25.291Z,22.87
2018-11-12T22:32:54.305Z,22.27
2018-11-12T22:35:22.661Z,20.43
2018-11-12T22:37:51.264Z,21.87
2018-11-12T22:40:20.151Z,22.30
2018-11-12T22:42:49.129Z,21.43
2018-11-12T22:45:19.793Z,19.47
2018-11-12T22:47:48.451Z,22.03
2018-11-12T22:50:16.760Z,21.87
2018-11-12T22:52:45.628Z,23.33
2018-11-12T22:55:15.140Z,20.77
2018-11-12T22:57:43.432Z,23.17
2018-11-12T23:00:21.064Z,21.67
2018-11-12T23:02:49.981Z,20.77
2018-11-12T23:05:18.800Z,22.70
2018-11-12T23:07:47.793Z,22.50
2018-11-12T23:10:16.798Z,23.47
2018-11-12T23:12:45.410Z,22.47
2018-11-12T23:15:13.995Z,22.90
2018-11-12T23:17:42.280Z,21.23
2018-11-12T23:20:13.674Z,21.17
2018-11-12T23:22:42.746Z,22.50
2018-11-12T23:25:11.374Z,23.17
2018-11-12T23:27:40.285Z,22.57
2018-11-12T23:30:10.493Z,23.30
2018-11-12T23:32:38.891Z,22.77
2018-11-12T23:35:08.974Z,20.63
2018-11-12T23:37:37.256Z,19.77
2018-11-12T23:40:06.362Z,22.40
2018-11-12T23:42:34.669Z,21.53
2018-11-12T23:45:02.959Z,22.37
2018-11-12T23:47:31.516Z,22.13
2018-11-12T23:49:59.803Z,23.33
2018-11-12T23:52:28.092Z,24.50
2018-11-12T23:54:56.384Z,23.03
2018-11-12T23:57:24.639Z,23.03
2018-11-12T23:59:52.978Z,21.53
